createdAt,value
2016-06-05T00:00:33.852Z,77.36
2016-06-05T00:01:34.042Z,77.17
2016-06-05T00:02:34.139Z,77.36
2016-06-05T00:03:33.860Z,77.26
2016-06-05T00:04:34.035Z,77.26
2016-06-05T00:05:34.069Z,77.17
2016-06-05T00:06:34.119Z,77.45
2016-06-05T00:07:34.480Z,77.17
2016-06-05T00:08:33.982Z,77.07
2016-06-05T00:09:34.033Z,77.17
2016-06-05T00:10:34.082Z,77.26
2016-06-05T00:11:33.975Z,77.07
2016-06-05T00:12:34.244Z,77.07
2016-06-05T00:13:34.138Z,77.07
2016-06-05T00:14:34.046Z,77.55
2016-06-05T00:15:34.032Z,76.87
2016-06-05T00:16:34.285Z,77.36
2016-06-05T00:17:34.273Z,77.45
2016-06-05T00:18:33.932Z,77.07
2016-06-05T00:19:33.872Z,76.87
2016-06-05T00:20:34.265Z,77.26
2016-06-05T00:21:34.018Z,77.26
2016-06-05T00:22:33.912Z,77.55
2016-06-05T00:23:35.007Z,77.17
2016-06-05T00:24:33.979Z,76.87
2016-06-05T00:25:34.092Z,77.26
2016-06-05T00:26:34.126Z,77.26
2016-06-05T00:27:34.003Z,77.07
2016-06-05T00:28:34.068Z,76.87
2016-06-05T00:29:34.352Z,77.26
2016-06-05T00:30:34.230Z,77.36
2016-06-05T00:31:33.858Z,77.07
2016-06-05T00:32:34.141Z,77.36
2016-06-05T00:33:34.144Z,77.17
2016-06-05T00:34:34.147Z,76.97
2016-06-05T00:35:34.024Z,77.07
2016-06-05T00:36:34.339Z,76.97
2016-06-05T00:37:34.217Z,76.84
2016-06-05T00:38:34.017Z,76.68
2016-06-05T00:39:34.035Z,76.93
2016-06-05T00:40:34.147Z,76.78
2016-06-05T00:41:34.291Z,76.78
2016-06-05T00:42:34.544Z,76.45
2016-06-05T00:43:33.952Z,76.87
2016-06-05T00:44:34.142Z,76.78
2016-06-05T00:45:34.255Z,76.87
2016-06-05T00:46:34.148Z,76.68
2016-06-05T00:47:33.978Z,76.68
2016-06-05T00:48:34.528Z,77.17
2016-06-05T00:49:34.421Z,76.68
2016-06-05T00:50:34.065Z,77.07
2016-06-05T00:51:34.193Z,76.78
2016-06-05T00:52:34.414Z,76.78
2016-06-05T00:53:33.604Z,76.49
2016-06-05T00:54:33.904Z,76.68
2016-06-05T00:55:34.172Z,76.68
2016-06-05T00:56:34.034Z,76.59
2016-06-05T00:57:34.162Z,76.97
2016-06-05T00:58:34.743Z,77.17
2016-06-05T00:59:33.979Z,76.68
2016-06-05T01:00:33.982Z,77.17
2016-06-05T01:01:34.173Z,76.68
2016-06-05T01:02:34.050Z,77.26
2016-06-05T01:03:34.021Z,76.59
2016-06-05T01:04:34.322Z,77.17
2016-06-05T01:05:34.042Z,77.07
2016-06-05T01:06:33.967Z,77.17
2016-06-05T01:07:33.955Z,77.17
2016-06-05T01:08:34.394Z,77.26
2016-06-05T01:09:34.006Z,76.68
2016-06-05T01:10:33.869Z,77.26
2016-06-05T01:11:34.153Z,77.07
2016-06-05T01:12:34.202Z,77.17
2016-06-05T01:13:34.564Z,77.07
2016-06-05T01:14:34.363Z,77.07
2016-06-05T01:15:34.194Z,76.78
2016-06-05T01:16:34.166Z,77.17
2016-06-05T01:17:34.746Z,76.97
2016-06-05T01:18:34.093Z,76.35
2016-06-05T01:19:33.908Z,76.87
2016-06-05T01:20:34.443Z,76.59
2016-06-05T01:21:34.289Z,76.59
2016-06-05T01:22:33.932Z,76.59
2016-06-05T01:23:34.060Z,76.97
2016-06-05T01:24:34.125Z,77.36
2016-06-05T01:25:34.190Z,76.39
2016-06-05T01:26:33.959Z,76.59
2016-06-05T01:27:34.664Z,77.26
2016-06-05T01:28:34.057Z,77.07
2016-06-05T01:29:33.920Z,77.42
2016-06-05T01:30:34.000Z,76.97
2016-06-05T01:31:34.348Z,77.17
2016-06-05T01:32:34.225Z,76.49
2016-06-05T01:33:34.274Z,77.45
2016-06-05T01:34:34.292Z,77.17
2016-06-05T01:35:34.045Z,76.78
2016-06-05T01:36:34.158Z,77.17
2016-06-05T01:37:34.457Z,76.49
2016-06-05T01:38:33.975Z,76.59
2016-06-05T01:39:34.086Z,77.17
2016-06-05T01:40:34.137Z,77.45
2016-06-05T01:41:34.061Z,77.45
2016-06-05T01:42:34.205Z,76.49
2016-06-05T01:43:34.098Z,76.49
2016-06-05T01:44:34.492Z,77.45
2016-06-05T01:45:33.853Z,77.07
2016-06-05T01:46:34.246Z,77.07
2016-06-05T01:47:34.077Z,77.32
2016-06-05T01:48:33.799Z,76.78
2016-06-05T01:49:34.473Z,76.97
2016-06-05T01:50:34.477Z,76.87
2016-06-05T01:51:34.104Z,77.17
2016-06-05T01:52:34.294Z,77.22
2016-06-05T01:53:34.453Z,77.07
2016-06-05T01:54:34.065Z,77.07
2016-06-05T01:55:33.865Z,76.29
2016-06-05T01:56:34.212Z,76.29
2016-06-05T01:57:34.120Z,76.78
2016-06-05T01:58:34.512Z,76.78
2016-06-05T01:59:34.547Z,76.39
2016-06-05T02:00:34.191Z,76.29
2016-06-05T02:01:34.037Z,77.07
2016-06-05T02:02:34.290Z,76.68
2016-06-05T02:03:34.168Z,76.59
2016-06-05T02:04:34.373Z,76.68
2016-06-05T02:05:34.064Z,76.55
2016-06-05T02:06:34.206Z,76.49
2016-06-05T02:07:34.006Z,76.78
2016-06-05T02:08:34.119Z,76.68
2016-06-05T02:09:34.277Z,76.68
2016-06-05T02:10:34.139Z,76.87
2016-06-05T02:11:34.189Z,76.59
2016-06-05T02:12:34.348Z,76.87
2016-06-05T02:13:34.163Z,76.49
2016-06-05T02:14:33.931Z,76.45
2016-06-05T02:15:34.121Z,76.59
2016-06-05T02:16:34.155Z,76.59
2016-06-05T02:17:34.299Z,76.97
2016-06-05T02:18:34.457Z,76.59
2016-06-05T02:19:34.054Z,76.59
2016-06-05T02:20:34.104Z,76.55
2016-06-05T02:21:34.216Z,76.49
2016-06-05T02:22:34.156Z,76.97
2016-06-05T02:23:34.096Z,76.97
2016-06-05T02:24:34.223Z,76.87
2016-06-05T02:25:34.335Z,76.97
2016-06-05T02:26:34.230Z,76.55
2016-06-05T02:27:35.045Z,76.59
2016-06-05T02:28:34.234Z,76.78
2016-06-05T02:29:34.253Z,76.78
2016-06-05T02:30:34.396Z,76.78
2016-06-05T02:31:34.165Z,77.07
2016-06-05T02:32:34.151Z,76.87
2016-06-05T02:33:33.967Z,76.84
2016-06-05T02:34:34.345Z,76.97
2016-06-05T02:35:34.425Z,76.97
2016-06-05T02:36:34.194Z,76.59
2016-06-05T02:37:34.447Z,76.64
2016-06-05T02:38:34.418Z,76.68
2016-06-05T02:39:34.061Z,76.39
2016-06-05T02:40:34.250Z,76.39
2016-06-05T02:41:33.911Z,76.78
2016-06-05T02:42:34.897Z,76.87
2016-06-05T02:43:34.868Z,77.07
2016-06-05T02:44:34.466Z,76.87
2016-06-05T02:45:34.186Z,77.07
2016-06-05T02:46:34.174Z,76.78
2016-06-05T02:47:34.177Z,77.07
2016-06-05T02:48:34.070Z,77.03
2016-06-05T02:49:34.182Z,77.07
2016-06-05T02:50:34.341Z,76.84
2016-06-05T02:51:34.094Z,76.93
2016-06-05T02:52:34.128Z,76.78
2016-06-05T02:53:34.333Z,76.78
2016-06-05T02:54:34.460Z,76.87
2016-06-05T02:55:33.761Z,76.87
2016-06-05T02:56:34.576Z,76.87
2016-06-05T02:57:35.296Z,76.78
2016-06-05T02:58:34.160Z,76.78
2016-06-05T02:59:34.584Z,76.68
2016-06-05T03:00:34.508Z,76.87
2016-06-05T03:01:34.167Z,76.97
2016-06-05T03:02:34.623Z,76.74
2016-06-05T03:03:34.501Z,76.87
2016-06-05T03:04:34.237Z,76.49
2016-06-05T03:05:34.022Z,76.78
2016-06-05T03:06:34.649Z,76.78
2016-06-05T03:07:34.261Z,77.17
2016-06-05T03:08:34.061Z,76.78
2016-06-05T03:09:34.250Z,76.78
2016-06-05T03:10:34.270Z,76.97
2016-06-05T03:11:34.179Z,76.87
2016-06-05T03:12:34.681Z,76.97
2016-06-05T03:13:35.028Z,76.64
2016-06-05T03:14:34.264Z,76.59
2016-06-05T03:15:34.392Z,76.59
2016-06-05T03:16:34.520Z,76.97
2016-06-05T03:17:34.304Z,76.97
2016-06-05T03:18:34.432Z,76.68
2016-06-05T03:19:34.512Z,77.17
2016-06-05T03:20:34.437Z,76.97
2016-06-05T03:21:34.330Z,76.87
2016-06-05T03:22:34.301Z,76.68
2016-06-05T03:23:34.148Z,76.68
2016-06-05T03:24:34.151Z,76.68
2016-06-05T03:25:34.404Z,76.68
2016-06-05T03:26:34.235Z,76.87
2016-06-05T03:27:34.049Z,76.64
2016-06-05T03:28:34.943Z,76.68
2016-06-05T03:29:34.180Z,76.78
2016-06-05T03:30:34.120Z,76.87
2016-06-05T03:31:34.342Z,76.78
2016-06-05T03:32:34.516Z,76.78
2016-06-05T03:33:34.222Z,76.97
2016-06-05T03:34:34.428Z,76.97
2016-06-05T03:35:34.353Z,76.87
2016-06-05T03:36:34.340Z,76.97
2016-06-05T03:37:34.342Z,76.68
2016-06-05T03:38:34.267Z,76.87
2016-06-05T03:39:34.582Z,76.78
2016-06-05T03:40:34.272Z,76.49
2016-06-05T03:41:34.415Z,76.59
2016-06-05T03:42:35.605Z,76.49
2016-06-05T03:43:34.703Z,76.59
2016-06-05T03:44:34.627Z,76.87
2016-06-05T03:45:34.613Z,76.68
2016-06-05T03:46:34.319Z,76.87
2016-06-05T03:47:34.635Z,76.68
2016-06-05T03:48:34.591Z,76.87
2016-06-05T03:49:34.281Z,76.68
2016-06-05T03:50:34.127Z,76.49
2016-06-05T03:51:34.364Z,76.59
2016-06-05T03:52:34.305Z,76.59
2016-06-05T03:53:34.416Z,76.39
2016-06-05T03:54:34.279Z,76.49
2016-06-05T03:55:34.516Z,76.49
2016-06-05T03:56:33.784Z,76.59
2016-06-05T03:57:34.458Z,76.49
2016-06-05T03:58:34.460Z,76.49
2016-06-05T03:59:34.104Z,76.49
2016-06-05T04:00:34.466Z,76.59
2016-06-05T04:01:34.485Z,76.59
2016-06-05T04:02:34.285Z,76.59
2016-06-05T04:03:34.490Z,76.49
2016-06-05T04:04:34.399Z,76.64
2016-06-05T04:05:34.262Z,76.49
2016-06-05T04:06:34.498Z,76.49
2016-06-05T04:07:34.376Z,76.49
2016-06-05T04:08:34.409Z,76.49
2016-06-05T04:09:34.444Z,76.78
2016-06-05T04:10:34.728Z,76.49
2016-06-05T04:11:34.231Z,76.49
2016-06-05T04:12:34.327Z,76.64
2016-06-05T04:13:35.001Z,76.45
2016-06-05T04:14:34.426Z,76.59
2016-06-05T04:15:34.320Z,76.49
2016-06-05T04:16:34.681Z,76.68
2016-06-05T04:17:34.410Z,76.59
2016-06-05T04:18:34.331Z,76.78
2016-06-05T04:19:34.751Z,76.68
2016-06-05T04:20:34.345Z,76.49
2016-06-05T04:21:34.469Z,76.2
2016-06-05T04:22:34.588Z,76.78
2016-06-05T04:23:34.803Z,76.59
2016-06-05T04:24:34.660Z,76.68
2016-06-05T04:25:34.704Z,76.78
2016-06-05T04:26:34.686Z,76.68
2016-06-05T04:27:34.182Z,76.68
2016-06-05T04:28:34.704Z,76.68
2016-06-05T04:29:34.898Z,76.68
2016-06-05T04:30:34.592Z,76.59
2016-06-05T04:31:34.708Z,76.68
2016-06-05T04:32:34.870Z,76.68
2016-06-05T04:33:34.560Z,76.87
2016-06-05T04:34:34.518Z,76.78
2016-06-05T04:35:34.756Z,76.78
2016-06-05T04:36:34.791Z,76.78
2016-06-05T04:37:34.560Z,76.78
2016-06-05T04:38:34.751Z,76.78
2016-06-05T04:39:34.675Z,76.68
2016-06-05T04:40:34.538Z,76.78
2016-06-05T04:41:34.682Z,76.78
2016-06-05T04:42:35.310Z,76.97
2016-06-05T04:43:34.564Z,76.39
2016-06-05T04:44:34.473Z,76.29
2016-06-05T04:45:34.632Z,76.2
2016-06-05T04:46:34.589Z,76.39
2016-06-05T04:47:34.591Z,76.39
2016-06-05T04:48:34.656Z,76.78
2016-06-05T04:49:34.237Z,76.29
2016-06-05T04:50:34.458Z,76.97
2016-06-05T04:51:34.570Z,76.39
2016-06-05T04:52:34.652Z,76.39
2016-06-05T04:53:34.576Z,76.29
2016-06-05T04:54:34.860Z,76.1
2016-06-05T04:55:34.863Z,76.78
2016-06-05T04:56:34.787Z,76.59
2016-06-05T04:57:34.931Z,76.78
2016-06-05T04:58:34.777Z,76.78
2016-06-05T04:59:34.717Z,76.78
2016-06-05T05:00:35.016Z,76.78
2016-06-05T05:01:34.926Z,76.87
2016-06-05T05:02:34.522Z,76.59
2016-06-05T05:03:34.634Z,76.78
2016-06-05T05:04:34.730Z,76.78
2016-06-05T05:05:34.687Z,76.78
2016-06-05T05:06:34.674Z,76.87
2016-06-05T05:07:35.035Z,76.78
2016-06-05T05:08:34.679Z,76.39
2016-06-05T05:09:34.682Z,76.78
2016-06-05T05:10:35.185Z,76.78
2016-06-05T05:11:35.515Z,76.59
2016-06-05T05:12:35.876Z,76.59
2016-06-05T05:13:35.740Z,76.78
2016-06-05T05:14:35.648Z,76.74
2016-06-05T05:15:35.432Z,76.74
2016-06-05T05:16:35.762Z,76.59
2016-06-05T05:17:35.703Z,76.78
2016-06-05T05:18:35.581Z,76.78
2016-06-05T05:19:35.755Z,76.84
2016-06-05T05:20:35.711Z,76.78
2016-06-05T05:21:35.573Z,76.68
2016-06-05T05:22:36.014Z,76.68
2016-06-05T05:23:35.595Z,76.78
2016-06-05T05:24:35.659Z,76.87
2016-06-05T05:25:35.694Z,76.64
2016-06-05T05:26:35.744Z,76.78
2016-06-05T05:27:35.746Z,76.78
2016-06-05T05:28:36.202Z,76.97
2016-06-05T05:29:35.766Z,76.78
2016-06-05T05:30:35.660Z,76.2
2016-06-05T05:31:35.538Z,76.68
2016-06-05T05:32:35.760Z,76.78
2016-06-05T05:33:35.683Z,76.78
2016-06-05T05:34:35.577Z,76.78
2016-06-05T05:35:36.001Z,76.78
2016-06-05T05:36:35.941Z,76.97
2016-06-05T05:37:35.585Z,76.78
2016-06-05T05:38:35.713Z,76.97
2016-06-05T05:39:35.715Z,76.1
2016-06-05T05:40:35.656Z,76.78
2016-06-05T05:41:35.877Z,76.59
2016-06-05T05:42:35.787Z,76.87
2016-06-05T05:43:36.632Z,76.68
2016-06-05T05:44:35.744Z,76.39
2016-06-05T05:45:35.966Z,76.39
2016-06-05T05:46:35.734Z,76.2
2016-06-05T05:47:35.909Z,76.45
2016-06-05T05:48:35.973Z,76.2
2016-06-05T05:49:35.711Z,76.01
2016-06-05T05:50:36.011Z,76.01
2016-06-05T05:51:35.826Z,76.39
2016-06-05T05:52:35.594Z,76.2
2016-06-05T05:53:35.612Z,76.2
2016-06-05T05:54:35.850Z,76.29
2016-06-05T05:55:35.992Z,76.39
2016-06-05T05:56:35.745Z,76.2
2016-06-05T05:57:36.061Z,76.29
2016-06-05T05:58:35.861Z,76.26
2016-06-05T05:59:35.894Z,76.2
2016-06-05T06:00:36.272Z,76.01
2016-06-05T06:01:35.775Z,76.2
2016-06-05T06:02:35.886Z,76.01
2016-06-05T06:03:35.905Z,76.1
2016-06-05T06:04:35.799Z,76.35
2016-06-05T06:05:35.691Z,76.87
2016-06-05T06:06:35.507Z,75.97
2016-06-05T06:07:35.821Z,76.39
2016-06-05T06:08:35.731Z,76.35
2016-06-05T06:09:35.859Z,76.01
2016-06-05T06:10:36.111Z,76.29
2016-06-05T06:11:35.910Z,76.1
2016-06-05T06:12:36.132Z,76.49
2016-06-05T06:13:36.073Z,76.39
2016-06-05T06:14:35.825Z,75.91
2016-06-05T06:15:35.687Z,76.39
2016-06-05T06:16:35.924Z,76.1
2016-06-05T06:17:35.801Z,75.91
2016-06-05T06:18:35.726Z,76.26
2016-06-05T06:19:35.886Z,75.91
2016-06-05T06:20:35.951Z,76.2
2016-06-05T06:21:35.750Z,76.29
2016-06-05T06:22:35.534Z,76.01
2016-06-05T06:23:35.849Z,76.1
2016-06-05T06:24:35.993Z,75.91
2016-06-05T06:25:35.745Z,76.2
2016-06-05T06:26:35.872Z,76.1
2016-06-05T06:27:35.813Z,75.91
2016-06-05T06:28:35.566Z,75.91
2016-06-05T06:29:35.833Z,76.01
2016-06-05T06:30:35.836Z,75.91
2016-06-05T06:31:35.902Z,75.91
2016-06-05T06:32:36.046Z,76.29
2016-06-05T06:33:35.735Z,75.91
2016-06-05T06:34:35.738Z,75.91
2016-06-05T06:35:35.850Z,76.1
2016-06-05T06:36:36.071Z,76.2
2016-06-05T06:37:35.949Z,76.29
2016-06-05T06:38:35.890Z,76.2
2016-06-05T06:39:35.877Z,76.39
2016-06-05T06:40:36.004Z,76.29
2016-06-05T06:41:35.913Z,76.2
2016-06-05T06:42:36.354Z,76.1
2016-06-05T06:43:36.059Z,76.2
2016-06-05T06:44:35.734Z,76.1
2016-06-05T06:45:35.909Z,76.16
2016-06-05T06:46:35.723Z,76.1
2016-06-05T06:47:35.946Z,76.01
2016-06-05T06:48:35.979Z,76.1
2016-06-05T06:49:35.841Z,76.39
2016-06-05T06:50:35.672Z,76.01
2016-06-05T06:51:35.847Z,76.01
2016-06-05T06:52:35.865Z,76.01
2016-06-05T06:53:35.664Z,76.1
2016-06-05T06:54:35.605Z,76.1
2016-06-05T06:55:35.778Z,76.01
2016-06-05T06:56:35.844Z,76.2
2016-06-05T06:57:36.534Z,75.87
2016-06-05T06:58:36.944Z,76.01
2016-06-05T06:59:35.946Z,76.1
2016-06-05T07:00:35.917Z,75.91
2016-06-05T07:01:35.827Z,76.39
2016-06-05T07:02:35.860Z,76.01
2016-06-05T07:03:35.957Z,75.87
2016-06-05T07:04:36.178Z,75.91
2016-06-05T07:05:36.119Z,76.16
2016-06-05T07:06:36.028Z,75.91
2016-06-05T07:07:36.108Z,75.91
2016-06-05T07:08:36.096Z,76.1
2016-06-05T07:09:36.005Z,76.29
2016-06-05T07:10:35.835Z,75.91
2016-06-05T07:11:36.118Z,76.2
2016-06-05T07:12:36.231Z,76.1
2016-06-05T07:13:35.938Z,76.1
2016-06-05T07:14:36.018Z,75.91
2016-06-05T07:15:36.068Z,75.91
2016-06-05T07:16:35.664Z,76.1
2016-06-05T07:17:35.978Z,76.01
2016-06-05T07:18:35.748Z,75.91
2016-06-05T07:19:35.798Z,76.01
2016-06-05T07:20:35.862Z,75.91
2016-06-05T07:21:36.098Z,75.91
2016-06-05T07:22:36.023Z,76.01
2016-06-05T07:23:36.073Z,76.01
2016-06-05T07:24:35.889Z,75.91
2016-06-05T07:25:35.703Z,75.78
2016-06-05T07:26:36.019Z,76.01
2016-06-05T07:27:36.350Z,75.87
2016-06-05T07:28:36.853Z,75.91
2016-06-05T07:29:35.777Z,75.81
2016-06-05T07:30:35.967Z,75.91
2016-06-05T07:31:36.095Z,76.1
2016-06-05T07:32:35.722Z,75.91
2016-06-05T07:33:35.991Z,76.01
2016-06-05T07:34:35.931Z,76.1
2016-06-05T07:35:35.715Z,75.91
2016-06-05T07:36:35.905Z,75.78
2016-06-05T07:37:35.923Z,75.81
2016-06-05T07:38:36.052Z,75.81
2016-06-05T07:39:36.210Z,75.87
2016-06-05T07:40:35.932Z,75.87
2016-06-05T07:41:35.918Z,75.81
2016-06-05T07:42:36.171Z,75.97
2016-06-05T07:43:37.174Z,75.81
2016-06-05T07:44:36.942Z,75.81
2016-06-05T07:45:36.007Z,75.78
2016-06-05T07:46:35.870Z,76.01
2016-06-05T07:47:35.888Z,76.01
2016-06-05T07:48:36.000Z,76.2
2016-06-05T07:49:36.221Z,75.81
2016-06-05T07:50:36.162Z,75.71
2016-06-05T07:51:35.851Z,75.78
2016-06-05T07:52:36.229Z,75.81
2016-06-05T07:53:36.170Z,76.01
2016-06-05T07:54:36.031Z,75.81
2016-06-05T07:55:35.925Z,75.78
2016-06-05T07:56:35.928Z,76.01
2016-06-05T07:57:35.899Z,75.91
2016-06-05T07:58:36.090Z,75.81
2016-06-05T07:59:35.889Z,76.01
2016-06-05T08:00:35.391Z,76.01
2016-06-05T08:01:35.629Z,76.01
2016-06-05T08:02:35.928Z,75.91
2016-06-05T08:03:35.961Z,76.01
2016-06-05T08:04:35.824Z,75.81
2016-06-05T08:05:36.249Z,75.91
2016-06-05T08:06:36.142Z,75.91
2016-06-05T08:07:35.847Z,76.01
2016-06-05T08:08:36.272Z,76.01
2016-06-05T08:09:36.088Z,75.81
2016-06-05T08:10:36.387Z,76.01
2016-06-05T08:11:36.280Z,75.91
2016-06-05T08:12:35.940Z,75.81
2016-06-05T08:13:35.989Z,75.81
2016-06-05T08:14:36.335Z,75.97
2016-06-05T08:15:36.212Z,75.91
2016-06-05T08:16:35.840Z,76.1
2016-06-05T08:17:36.031Z,75.91
2016-06-05T08:18:36.377Z,76.16
2016-06-05T08:19:36.239Z,75.91
2016-06-05T08:20:36.054Z,75.91
2016-06-05T08:21:36.276Z,75.91
2016-06-05T08:22:36.278Z,76.2
2016-06-05T08:23:36.063Z,76.1
2016-06-05T08:24:36.268Z,75.78
2016-06-05T08:25:35.881Z,76.1
2016-06-05T08:26:35.930Z,76.1
2016-06-05T08:27:36.105Z,75.81
2016-06-05T08:28:36.498Z,76.2
2016-06-05T08:29:36.157Z,76.2
2016-06-05T08:30:36.222Z,75.81
2016-06-05T08:31:36.022Z,76.1
2016-06-05T08:32:35.931Z,76.1
2016-06-05T08:33:35.825Z,76.01
2016-06-05T08:34:36.342Z,76.2
2016-06-05T08:35:36.033Z,76.01
2016-06-05T08:36:36.082Z,76.1
2016-06-05T08:37:36.069Z,76.2
2016-06-05T08:38:36.071Z,76.1
2016-06-05T08:39:35.902Z,76.16
2016-06-05T08:40:36.218Z,75.71
2016-06-05T08:41:36.002Z,76.01
2016-06-05T08:42:35.880Z,76.2
2016-06-05T08:43:36.194Z,76.1
2016-06-05T08:44:36.151Z,76.01
2016-06-05T08:45:36.060Z,76.1
2016-06-05T08:46:36.202Z,76.01
2016-06-05T08:47:36.159Z,76.01
2016-06-05T08:48:35.865Z,76.1
2016-06-05T08:49:36.054Z,76.01
2016-06-05T08:50:36.307Z,76.2
2016-06-05T08:51:36.201Z,76.01
2016-06-05T08:52:35.328Z,76.01
2016-06-05T08:53:36.206Z,76.01
2016-06-05T08:54:36.036Z,76.01
2016-06-05T08:55:36.117Z,76.01
2016-06-05T08:56:36.339Z,76.01
2016-06-05T08:57:36.107Z,76.16
2016-06-05T08:58:35.984Z,76.01
2016-06-05T08:59:36.253Z,75.91
2016-06-05T09:00:36.100Z,75.87
2016-06-05T09:01:35.540Z,76.29
2016-06-05T09:02:35.777Z,76.29
2016-06-05T09:03:36.139Z,76.29
2016-06-05T09:04:35.892Z,76.01
2016-06-05T09:05:36.333Z,76.01
2016-06-05T09:06:36.100Z,76.29
2016-06-05T09:07:36.025Z,76.2
2016-06-05T09:08:35.950Z,76.2
2016-06-05T09:09:36.014Z,76.06
2016-06-05T09:10:36.252Z,75.91
2016-06-05T09:11:35.957Z,76.06
2016-06-05T09:12:36.163Z,76.2
2016-06-05T09:13:36.400Z,76.2
2016-06-05T09:14:35.965Z,76.1
2016-06-05T09:15:36.374Z,76.01
2016-06-05T09:16:36.127Z,76.1
2016-06-05T09:17:35.958Z,75.91
2016-06-05T09:18:36.351Z,76.2
2016-06-05T09:19:36.088Z,76.1
2016-06-05T09:20:35.935Z,76.2
2016-06-05T09:21:36.329Z,75.91
2016-06-05T09:22:36.065Z,76.1
2016-06-05T09:23:36.442Z,75.97
2016-06-05T09:24:36.445Z,76.01
2016-06-05T09:27:33.062Z,76.1
2016-06-05T09:28:00.094Z,76.1
2016-06-05T09:29:00.175Z,76.2
2016-06-05T09:30:00.365Z,76.1
2016-06-05T09:31:00.462Z,75.91
2016-06-05T09:32:00.370Z,76.01
2016-06-05T09:33:00.592Z,76.1
2016-06-05T09:34:00.470Z,75.81
2016-06-05T09:35:00.504Z,76.29
2016-06-05T09:36:00.381Z,76.1
2016-06-05T09:37:00.305Z,75.91
2016-06-05T09:38:00.480Z,75.91
2016-06-05T09:39:00.499Z,75.91
2016-06-05T09:40:00.377Z,75.91
2016-06-05T09:41:00.441Z,76.01
2016-06-05T09:42:00.523Z,75.91
2016-06-05T09:43:00.494Z,76.1
2016-06-05T09:44:00.480Z,76.39
2016-06-05T09:45:00.437Z,75.91
2016-06-05T09:46:00.471Z,76.1
2016-06-05T09:47:00.161Z,76.29
2016-06-05T09:48:00.351Z,76.29
2016-06-05T09:49:01.323Z,76.29
2016-06-05T09:50:00.497Z,76.01
2016-06-05T09:51:00.766Z,76.29
2016-06-05T09:52:00.377Z,76.1
2016-06-05T09:53:00.193Z,76.29
2016-06-05T09:54:00.617Z,76.29
2016-06-05T09:55:00.448Z,75.87
2016-06-05T09:56:00.420Z,76.2
2016-06-05T09:57:00.532Z,75.78
2016-06-05T09:58:00.659Z,75.81
2016-06-05T09:59:01.162Z,76.35
2016-06-05T10:00:00.556Z,76.16
2016-06-05T10:01:00.652Z,75.81
2016-06-05T10:02:00.467Z,75.81
2016-06-05T10:03:00.407Z,76.2
2016-06-05T10:04:00.550Z,76.29
2016-06-05T10:05:01.069Z,76.2
2016-06-05T10:06:00.399Z,76.29
2016-06-05T10:07:00.528Z,75.71
2016-06-05T10:08:00.420Z,76.2
2016-06-05T10:09:00.564Z,76.2
2016-06-05T10:10:00.832Z,76.2
2016-06-05T10:11:00.460Z,75.81
2016-06-05T10:12:00.260Z,76.29
2016-06-05T10:13:00.981Z,76.29
2016-06-05T10:14:00.936Z,76.29
2016-06-05T10:15:00.407Z,76.2
2016-06-05T10:16:00.723Z,75.81
2016-06-05T10:17:00.273Z,75.91
2016-06-05T10:18:00.697Z,75.81
2016-06-05T10:19:00.840Z,75.81
2016-06-05T10:20:00.452Z,75.91
2016-06-05T10:21:00.518Z,75.91
2016-06-05T10:22:00.520Z,75.81
2016-06-05T10:23:00.789Z,76.39
2016-06-05T10:24:00.463Z,75.81
2016-06-05T10:25:00.576Z,75.81
2016-06-05T10:26:00.501Z,75.81
2016-06-05T10:27:00.784Z,75.81
2016-06-05T10:28:00.427Z,76.39
2016-06-05T10:29:00.587Z,75.81
2016-06-05T10:30:01.012Z,76.29
2016-06-05T10:31:00.654Z,75.81
2016-06-05T10:32:00.766Z,75.91
2016-06-05T10:33:00.737Z,75.81
2016-06-05T10:34:00.647Z,76.29
2016-06-05T10:35:00.353Z,75.81
2016-06-05T10:36:00.574Z,75.81
2016-06-05T10:37:00.498Z,76.2
2016-06-05T10:38:00.220Z,76.29
2016-06-05T10:39:00.019Z,75.81
2016-06-05T10:40:00.600Z,75.81
2016-06-05T10:41:00.400Z,75.81
2016-06-05T10:42:00.715Z,75.81
2016-06-05T10:43:00.483Z,76.39
2016-06-05T10:44:00.721Z,76.29
2016-06-05T10:45:00.660Z,75.81
2016-06-05T10:46:00.727Z,75.81
2016-06-05T10:47:00.604Z,75.81
2016-06-05T10:48:01.090Z,75.81
2016-06-05T10:49:00.843Z,76.2
2016-06-05T10:50:00.440Z,75.81
2016-06-05T10:51:01.099Z,75.81
2016-06-05T10:52:00.460Z,75.81
2016-06-05T10:53:00.573Z,75.81
2016-06-05T10:54:00.575Z,75.81
2016-06-05T10:55:00.516Z,75.91
2016-06-05T10:56:00.518Z,75.81
2016-06-05T10:57:00.412Z,75.81
2016-06-05T10:58:00.851Z,75.81
2016-06-05T10:59:01.901Z,75.81
2016-06-05T11:00:00.639Z,75.91
2016-06-05T11:01:00.656Z,75.81
2016-06-05T11:02:00.659Z,76.2
2016-06-05T11:03:00.662Z,75.81
2016-06-05T11:04:00.759Z,75.91
2016-06-05T11:05:00.215Z,75.91
2016-06-05T11:06:00.780Z,75.81
2016-06-05T11:07:00.328Z,75.81
2016-06-05T11:08:00.706Z,75.91
2016-06-05T11:09:01.694Z,75.81
2016-06-05T11:10:00.369Z,75.91
2016-06-05T11:11:00.715Z,75.91
2016-06-05T11:12:00.717Z,75.91
2016-06-05T11:13:00.580Z,75.81
2016-06-05T11:14:01.239Z,75.81
2016-06-05T11:15:00.758Z,75.81
2016-06-05T11:16:00.446Z,75.91
2016-06-05T11:17:00.887Z,75.91
2016-06-05T11:18:00.640Z,75.81
2016-06-05T11:19:00.596Z,75.91
2016-06-05T11:20:00.786Z,75.71
2016-06-05T11:21:00.148Z,75.91
2016-06-05T11:22:00.510Z,75.91
2016-06-05T11:23:00.590Z,75.81
2016-06-05T11:24:00.593Z,76.39
2016-06-05T11:25:01.487Z,76.01
2016-06-05T11:26:00.615Z,75.81
2016-06-05T11:27:00.883Z,75.91
2016-06-05T11:28:00.636Z,75.81
2016-06-05T11:29:00.701Z,75.91
2016-06-05T11:30:00.751Z,75.81
2016-06-05T11:31:01.034Z,75.81
2016-06-05T11:32:00.631Z,76.29
2016-06-05T11:33:00.884Z,75.91
2016-06-05T11:34:00.605Z,75.91
2016-06-05T11:35:00.451Z,75.81
2016-06-05T11:36:00.704Z,76.39
2016-06-05T11:37:00.691Z,75.91
2016-06-05T11:38:00.522Z,75.81
2016-06-05T11:39:00.790Z,75.81
2016-06-05T11:40:00.747Z,76.2
2016-06-05T11:41:01.999Z,75.91
2016-06-05T11:42:00.892Z,75.91
2016-06-05T11:43:00.597Z,75.81
2016-06-05T11:44:00.663Z,76.2
2016-06-05T11:45:00.385Z,75.91
2016-06-05T11:46:00.763Z,75.81
2016-06-05T11:47:00.749Z,75.81
2016-06-05T11:48:00.486Z,75.91
2016-06-05T11:49:00.599Z,75.81
2016-06-05T11:50:00.929Z,76.39
2016-06-05T11:51:01.197Z,75.91
2016-06-05T11:52:00.684Z,75.81
2016-06-05T11:53:00.124Z,75.81
2016-06-05T11:54:00.628Z,75.81
2016-06-05T11:55:00.740Z,75.81
2016-06-05T11:56:00.554Z,75.81
2016-06-05T11:57:00.588Z,76.01
2016-06-05T11:58:01.076Z,75.81
2016-06-05T11:59:00.750Z,75.91
2016-06-05T12:00:00.581Z,75.91
2016-06-05T12:01:00.396Z,75.81
2016-06-05T12:02:00.820Z,75.81
2016-06-05T12:03:00.573Z,75.91
2016-06-05T12:04:00.701Z,75.81
2016-06-05T12:05:00.734Z,75.91
2016-06-05T12:06:00.613Z,75.91
2016-06-05T12:07:01.257Z,75.91
2016-06-05T12:08:00.664Z,76.29
2016-06-05T12:09:00.700Z,75.91
2016-06-05T12:10:00.531Z,75.91
2016-06-05T12:11:00.580Z,75.91
2016-06-05T12:12:00.676Z,76.39
2016-06-05T12:13:01.648Z,76.1
2016-06-05T12:14:01.822Z,75.91
2016-06-05T12:15:00.933Z,76.49
2016-06-05T12:16:00.469Z,76.39
2016-06-05T12:17:00.189Z,75.81
2016-06-05T12:18:00.644Z,76.2
2016-06-05T12:19:00.492Z,75.91
2016-06-05T12:20:00.525Z,75.91
2016-06-05T12:21:00.747Z,75.81
2016-06-05T12:22:00.656Z,75.81
2016-06-05T12:23:00.893Z,75.81
2016-06-05T12:24:00.786Z,75.91
2016-06-05T12:25:00.867Z,75.81
2016-06-05T12:26:00.589Z,75.81
2016-06-05T12:27:01.028Z,76.39
2016-06-05T12:28:01.562Z,76.01
2016-06-05T12:29:01.674Z,75.81
2016-06-05T12:30:00.568Z,75.91
2016-06-05T12:31:00.742Z,75.81
2016-06-05T12:32:00.557Z,76.29
2016-06-05T12:35:23.928Z,75.81
2016-06-05T12:36:24.445Z,75.91
2016-06-05T12:37:24.340Z,76.39
2016-06-05T12:38:24.530Z,76.2
2016-06-05T12:39:24.111Z,75.81
2016-06-05T12:40:24.097Z,76.49
2016-06-05T12:41:24.554Z,76.01
2016-06-05T12:43:48.512Z,76.29
2016-06-05T12:44:48.234Z,75.81
2016-06-05T12:45:48.236Z,75.81
2016-06-05T12:46:48.364Z,75.81
2016-06-05T12:49:11.713Z,76.2
2016-06-05T12:50:15.013Z,76.29
2016-06-05T12:51:12.374Z,76.29
2016-06-05T12:52:23.271Z,76.2
2016-06-05T12:53:15.614Z,76.2
2016-06-05T12:54:12.539Z,75.91
2016-06-05T12:55:12.573Z,76.39
2016-06-05T12:56:13.294Z,76.2
2016-06-05T12:57:14.219Z,76.2
2016-06-05T12:58:13.503Z,76.39
2016-06-05T12:59:12.849Z,76.29
2016-06-05T13:00:12.929Z,76.29
2016-06-05T13:02:39.437Z,76.29
2016-06-05T13:03:37.957Z,76.29